Rona II — MPKR2 — position and weather

sailwx.info

Track history (hours):
 
Tides and Currents Weather Stations Pressure Air Temp Water Temp Dewpoint Dewpoint Depression Visibility Wind Speed Wind Dir Waves Ship Positions

Rona II

Last reported at 2016-May-22 00:22 UTC. Time now 2016-May-26 06:51 UTC.
Position N 50°47' W 001°12'.

Length 22 m.

Type: Sailing vessel. MMSI: 232714000.

Date/timePositionNaut miles runAvg speedWind from/ knotsBaromVisibWave heightAir tempDewpointWater temp
2016-May-22 00:22N 50°47' W 001°12'74 6.2
2016-May-21 12:32N 49°42' W 000°17'5 4.9
2016-May-21 11:29N 49°39' W 000°11'6 6.8
2016-May-21 10:33N 49°35' W 000°03'6 6.0
2016-May-21 09:33N 49°30' E 000°02'2 0.1
2016-May-20 15:31N 49°29' E 000°06'4 4.7
2016-May-20 14:33N 49°31' W 000°01'5 4.9
2016-May-20 13:32N 49°33' W 000°08'3 3.1
2016-May-20 12:33N 49°33' W 000°12'4 4.0
2016-May-20 11:33N 49°30' W 000°15'  
2016-May-16 22:25N 50°36' W 001°56'1 0.8
2016-May-16 21:33N 50°37' W 001°57'0 0.0
2016-May-16 16:22N 50°37' W 001°57'0 0.0
2016-May-16 15:28N 50°37' W 001°57'0 0.0
2016-May-16 14:28N 50°37' W 001°57'2 2.2
2016-May-16 13:33N 50°38' W 001°55'1 1.4
2016-May-16 12:33N 50°37' W 001°55'85 4.0
2016-May-15 15:31N 49°48' W 000°07'4 4.4
2016-May-15 14:33N 49°44' W 000°06'3 2.8
2016-May-15 13:33N 49°41' W 000°06'4 3.8
2016-May-15 12:31N 49°38' W 000°05'2 2.0
2016-May-15 11:33N 49°36' W 000°03'2 1.9
2016-May-15 10:33N 49°35' W 000°01'5 5.2
2016-May-15 09:33N 49°30' E 000°02'2 2.1
2016-May-15 08:31N 49°29' E 000°06'0 0.0
2016-May-15 07:31N 49°29' E 000°06'0 0.0
2016-May-15 06:31N 49°29' E 000°06'0 0.0
2016-May-15 05:31N 49°29' E 000°06'0 0.0
2016-May-15 04:31N 49°29' E 000°06'0 0.0
2016-May-15 03:31N 49°29' E 000°06'0 0.0
2016-May-15 02:31N 49°29' E 000°06'0 0.0
2016-May-15 01:31N 49°29' E 000°06'0 0.0
2016-May-15 00:31N 49°29' E 000°06'0 0.0
2016-May-14 23:31N 49°29' E 000°06'0 0.0
2016-May-14 22:31N 49°29' E 000°06'0 0.0
2016-May-14 21:31N 49°29' E 000°06'0 0.0
2016-May-14 20:31N 49°29' E 000°06'0 0.0
2016-May-14 19:31N 49°29' E 000°06'0 0.0
2016-May-14 18:31N 49°29' E 000°06'0 0.0
2016-May-14 17:31N 49°29' E 000°06'0 0.0
2016-May-14 16:31N 49°29' E 000°06'0 0.0
2016-May-14 15:32N 49°29' E 000°06'0 0.0
2016-May-14 14:32N 49°29' E 000°06'0 0.0
2016-May-14 13:32N 49°29' E 000°06'0 0.0
2016-May-14 12:32N 49°29' E 000°06'0 0.0
2016-May-14 11:29N 49°29' E 000°06'0 0.0
2016-May-14 10:32N 49°29' E 000°06'0 0.0
2016-May-14 09:32N 49°29' E 000°06'0 0.0
2016-May-14 08:29N 49°29' E 000°06'0 0.0
2016-May-14 07:32N 49°29' E 000°06'0 0.0
2016-May-14 06:32N 49°29' E 000°06'0 0.0
2016-May-14 05:32N 49°29' E 000°06'0 0.0
2016-May-14 04:29N 49°29' E 000°06'0 0.0
2016-May-14 03:32N 49°29' E 000°06'1 0.7
2016-May-14 02:33N 49°29' E 000°04'5 4.9
2016-May-14 01:33N 49°31' W 000°03'5 4.9
2016-May-14 00:32N 49°36' W 000°03'6 6.0
2016-May-13 23:32N 49°42' W 000°02'76 5.8
2016-May-13 10:25N 50°45' W 001°07'  
Track history (hours):
 
Tides and Currents Weather Stations Pressure Air Temp Water Temp Dewpoint Dewpoint Depression Visibility Wind Speed Wind Dir Waves Ship Positions

Rona II

Last reported at 2016-May-22 00:22 UTC. Time now 2016-May-26 06:51 UTC.
Position N 50°47' W 001°12'.

Length 22 m.

Type: Sailing vessel. MMSI: 232714000.

Date/timePositionNaut miles runAvg speedWind from/ knotsBaromVisibWave heightAir tempDewpointWater temp
2016-May-22 00:22N 50°47' W 001°12'74 6.2
2016-May-21 12:32N 49°42' W 000°17'5 4.9
2016-May-21 11:29N 49°39' W 000°11'6 6.8
2016-May-21 10:33N 49°35' W 000°03'6 6.0
2016-May-21 09:33N 49°30' E 000°02'2 0.1
2016-May-20 15:31N 49°29' E 000°06'4 4.7
2016-May-20 14:33N 49°31' W 000°01'5 4.9
2016-May-20 13:32N 49°33' W 000°08'3 3.1
2016-May-20 12:33N 49°33' W 000°12'4 4.0
2016-May-20 11:33N 49°30' W 000°15'  
2016-May-16 22:25N 50°36' W 001°56'1 0.8
2016-May-16 21:33N 50°37' W 001°57'0 0.0
2016-May-16 16:22N 50°37' W 001°57'0 0.0
2016-May-16 15:28N 50°37' W 001°57'0 0.0
2016-May-16 14:28N 50°37' W 001°57'2 2.2
2016-May-16 13:33N 50°38' W 001°55'1 1.4
2016-May-16 12:33N 50°37' W 001°55'85 4.0
2016-May-15 15:31N 49°48' W 000°07'4 4.4
2016-May-15 14:33N 49°44' W 000°06'3 2.8
2016-May-15 13:33N 49°41' W 000°06'4 3.8
2016-May-15 12:31N 49°38' W 000°05'2 2.0
2016-May-15 11:33N 49°36' W 000°03'2 1.9
2016-May-15 10:33N 49°35' W 000°01'5 5.2
2016-May-15 09:33N 49°30' E 000°02'2 2.1
2016-May-15 08:31N 49°29' E 000°06'0 0.0
2016-May-15 07:31N 49°29' E 000°06'0 0.0
2016-May-15 06:31N 49°29' E 000°06'0 0.0
2016-May-15 05:31N 49°29' E 000°06'0 0.0
2016-May-15 04:31N 49°29' E 000°06'0 0.0
2016-May-15 03:31N 49°29' E 000°06'0 0.0
2016-May-15 02:31N 49°29' E 000°06'0 0.0
2016-May-15 01:31N 49°29' E 000°06'0 0.0
2016-May-15 00:31N 49°29' E 000°06'0 0.0
2016-May-14 23:31N 49°29' E 000°06'0 0.0
2016-May-14 22:31N 49°29' E 000°06'0 0.0
2016-May-14 21:31N 49°29' E 000°06'0 0.0
2016-May-14 20:31N 49°29' E 000°06'0 0.0
2016-May-14 19:31N 49°29' E 000°06'0 0.0
2016-May-14 18:31N 49°29' E 000°06'0 0.0
2016-May-14 17:31N 49°29' E 000°06'0 0.0
2016-May-14 16:31N 49°29' E 000°06'0 0.0
2016-May-14 15:32N 49°29' E 000°06'0 0.0
2016-May-14 14:32N 49°29' E 000°06'0 0.0
2016-May-14 13:32N 49°29' E 000°06'0 0.0
2016-May-14 12:32N 49°29' E 000°06'0 0.0
2016-May-14 11:29N 49°29' E 000°06'0 0.0
2016-May-14 10:32N 49°29' E 000°06'0 0.0
2016-May-14 09:32N 49°29' E 000°06'0 0.0
2016-May-14 08:29N 49°29' E 000°06'0 0.0
2016-May-14 07:32N 49°29' E 000°06'0 0.0
2016-May-14 06:32N 49°29' E 000°06'0 0.0
2016-May-14 05:32N 49°29' E 000°06'0 0.0
2016-May-14 04:29N 49°29' E 000°06'0 0.0
2016-May-14 03:32N 49°29' E 000°06'1 0.7
2016-May-14 02:33N 49°29' E 000°04'5 4.9
2016-May-14 01:33N 49°31' W 000°03'5 4.9
2016-May-14 00:32N 49°36' W 000°03'6 6.0
2016-May-13 23:32N 49°42' W 000°02'76 5.8
2016-May-13 10:25N 50°45' W 001°07'  

Dump ship's entire track history